sensor_id;sensor_type;location;lat;lon;timestamp;temperature;humidity
5560;DHT22;2803;47.916;8.074;2022-08-21T00:00:12;17.50;99.90
5560;DHT22;2803;47.916;8.074;2022-08-21T00:02:45;17.60;99.90
5560;DHT22;2803;47.916;8.074;2022-08-21T00:05:12;17.70;99.90
5560;DHT22;2803;47.916;8.074;2022-08-21T00:07:38;17.70;99.90
5560;DHT22;2803;47.916;8.074;2022-08-21T00:10:06;17.80;99.90
5560;DHT22;2803;47.916;8.074;2022-08-21T00:12:32;17.80;99.90
5560;DHT22;2803;47.916;8.074;2022-08-21T00:14:59;17.80;99.90
5560;DHT22;2803;47.916;8.074;2022-08-21T00:17:27;17.80;99.90
5560;DHT22;2803;47.916;8.074;2022-08-21T00:19:54;17.60;99.90
5560;DHT22;2803;47.916;8.074;2022-08-21T00:22:20;17.60;99.90
5560;DHT22;2803;47.916;8.074;2022-08-21T00:24:47;17.40;99.90
5560;DHT22;2803;47.916;8.074;2022-08-21T00:27:14;17.00;99.90
5560;DHT22;2803;47.916;8.074;2022-08-21T00:29:40;17.00;99.90
5560;DHT22;2803;47.916;8.074;2022-08-21T00:32:07;17.20;99.90
5560;DHT22;2803;47.916;8.074;2022-08-21T00:34:35;17.10;99.90
5560;DHT22;2803;47.916;8.074;2022-08-21T00:37:02;17.10;99.90
5560;DHT22;2803;47.916;8.074;2022-08-21T00:39:29;17.20;99.90
5560;DHT22;2803;47.916;8.074;2022-08-21T00:41:56;17.20;99.90
5560;DHT22;2803;47.916;8.074;2022-08-21T00:44:23;16.90;99.90
5560;DHT22;2803;47.916;8.074;2022-08-21T00:46:49;17.10;99.90
5560;DHT22;2803;47.916;8.074;2022-08-21T00:49:16;17.00;99.90
5560;DHT22;2803;47.916;8.074;2022-08-21T00:51:48;16.60;99.90
5560;DHT22;2803;47.916;8.074;2022-08-21T00:54:16;16.50;99.90
5560;DHT22;2803;47.916;8.074;2022-08-21T00:56:43;16.30;99.90
5560;DHT22;2803;47.916;8.074;2022-08-21T00:59:10;16.60;99.90
5560;DHT22;2803;47.916;8.074;2022-08-21T01:01:37;16.80;99.90
5560;DHT22;2803;47.916;8.074;2022-08-21T01:04:04;16.90;99.90
5560;DHT22;2803;47.916;8.074;2022-08-21T01:06:30;16.80;99.90
5560;DHT22;2803;47.916;8.074;2022-08-21T01:08:58;16.90;99.90
5560;DHT22;2803;47.916;8.074;2022-08-21T01:11:25;17.00;99.90
5560;DHT22;2803;47.916;8.074;2022-08-21T01:13:52;16.80;99.90
5560;DHT22;2803;47.916;8.074;2022-08-21T01:16:21;16.70;99.90
5560;DHT22;2803;47.916;8.074;2022-08-21T01:18:49;16.90;99.90
5560;DHT22;2803;47.916;8.074;2022-08-21T01:21:20;16.90;99.90
5560;DHT22;2803;47.916;8.074;2022-08-21T01:23:48;17.00;99.90
5560;DHT22;2803;47.916;8.074;2022-08-21T01:26:20;17.10;99.90
5560;DHT22;2803;47.916;8.074;2022-08-21T01:28:50;17.10;99.90
5560;DHT22;2803;47.916;8.074;2022-08-21T01:31:19;17.10;99.90
5560;DHT22;2803;47.916;8.074;2022-08-21T01:33:47;16.90;99.90
5560;DHT22;2803;47.916;8.074;2022-08-21T01:36:14;16.70;99.90
5560;DHT22;2803;47.916;8.074;2022-08-21T01:38:42;16.90;99.90
5560;DHT22;2803;47.916;8.074;2022-08-21T01:41:09;16.90;99.90
5560;DHT22;2803;47.916;8.074;2022-08-21T01:43:36;17.00;99.90
5560;DHT22;2803;47.916;8.074;2022-08-21T01:46:03;17.10;99.90
5560;DHT22;2803;47.916;8.074;2022-08-21T01:48:30;17.10;99.90
5560;DHT22;2803;47.916;8.074;2022-08-21T01:50:56;17.10;99.90
5560;DHT22;2803;47.916;8.074;2022-08-21T01:53:23;17.00;99.90
5560;DHT22;2803;47.916;8.074;2022-08-21T01:55:51;17.00;99.90
5560;DHT22;2803;47.916;8.074;2022-08-21T01:58:18;16.90;99.90
5560;DHT22;2803;47.916;8.074;2022-08-21T02:00:44;17.00;99.90
5560;DHT22;2803;47.916;8.074;2022-08-21T02:03:11;17.00;99.90
5560;DHT22;2803;47.916;8.074;2022-08-21T02:05:37;16.80;99.90
5560;DHT22;2803;47.916;8.074;2022-08-21T02:08:06;16.90;99.90
5560;DHT22;2803;47.916;8.074;2022-08-21T02:10:33;16.60;99.90
5560;DHT22;2803;47.916;8.074;2022-08-21T02:13:01;16.70;99.90
5560;DHT22;2803;47.916;8.074;2022-08-21T02:15:28;16.80;99.90
5560;DHT22;2803;47.916;8.074;2022-08-21T02:17:58;16.60;99.90
5560;DHT22;2803;47.916;8.074;2022-08-21T02:20:28;16.60;99.90
5560;DHT22;2803;47.916;8.074;2022-08-21T02:22:56;16.60;99.90
5560;DHT22;2803;47.916;8.074;2022-08-21T02:25:24;16.90;99.90
5560;DHT22;2803;47.916;8.074;2022-08-21T02:27:51;17.00;99.90
5560;DHT22;2803;47.916;8.074;2022-08-21T02:30:23;17.20;99.90
5560;DHT22;2803;47.916;8.074;2022-08-21T02:32:50;16.90;99.90
5560;DHT22;2803;47.916;8.074;2022-08-21T02:35:17;17.10;99.90
5560;DHT22;2803;47.916;8.074;2022-08-21T02:37:46;17.00;99.90
5560;DHT22;2803;47.916;8.074;2022-08-21T02:40:14;17.00;99.90
5560;DHT22;2803;47.916;8.074;2022-08-21T02:42:41;17.10;99.90
5560;DHT22;2803;47.916;8.074;2022-08-21T02:45:09;17.00;99.90
5560;DHT22;2803;47.916;8.074;2022-08-21T02:47:37;16.40;99.90
5560;DHT22;2803;47.916;8.074;2022-08-21T02:50:05;16.20;99.90
5560;DHT22;2803;47.916;8.074;2022-08-21T02:52:32;16.30;99.90
5560;DHT22;2803;47.916;8.074;2022-08-21T02:55:00;16.40;99.90
5560;DHT22;2803;47.916;8.074;2022-08-21T02:57:27;16.50;99.90
5560;DHT22;2803;47.916;8.074;2022-08-21T02:59:53;16.90;99.90
5560;DHT22;2803;47.916;8.074;2022-08-21T03:02:20;16.70;99.90
5560;DHT22;2803;47.916;8.074;2022-08-21T03:04:48;16.50;99.90
5560;DHT22;2803;47.916;8.074;2022-08-21T03:07:15;16.10;99.90
5560;DHT22;2803;47.916;8.074;2022-08-21T03:09:41;15.80;99.90
5560;DHT22;2803;47.916;8.074;2022-08-21T03:12:08;15.70;99.90
5560;DHT22;2803;47.916;8.074;2022-08-21T03:14:34;15.50;99.90
5560;DHT22;2803;47.916;8.074;2022-08-21T03:17:01;16.00;99.90
5560;DHT22;2803;47.916;8.074;2022-08-21T03:19:27;16.20;99.90
5560;DHT22;2803;47.916;8.074;2022-08-21T03:21:55;15.70;99.90
5560;DHT22;2803;47.916;8.074;2022-08-21T03:24:22;15.60;99.90
5560;DHT22;2803;47.916;8.074;2022-08-21T03:26:49;15.90;99.90
5560;DHT22;2803;47.916;8.074;2022-08-21T03:29:15;15.50;99.90
5560;DHT22;2803;47.916;8.074;2022-08-21T03:31:42;15.30;99.90
5560;DHT22;2803;47.916;8.074;2022-08-21T03:34:08;14.70;99.90
5560;DHT22;2803;47.916;8.074;2022-08-21T03:36:36;14.70;99.90
5560;DHT22;2803;47.916;8.074;2022-08-21T03:39:04;14.70;99.90
5560;DHT22;2803;47.916;8.074;2022-08-21T03:41:30;14.60;99.90
5560;DHT22;2803;47.916;8.074;2022-08-21T03:43:57;15.10;99.90
5560;DHT22;2803;47.916;8.074;2022-08-21T03:46:24;15.40;99.90
5560;DHT22;2803;47.916;8.074;2022-08-21T03:48:51;15.90;99.90
5560;DHT22;2803;47.916;8.074;2022-08-21T03:51:18;15.80;99.90
5560;DHT22;2803;47.916;8.074;2022-08-21T03:53:45;15.60;99.90
5560;DHT22;2803;47.916;8.074;2022-08-21T03:56:13;15.90;99.90
5560;DHT22;2803;47.916;8.074;2022-08-21T03:58:41;16.00;99.90
5560;DHT22;2803;47.916;8.074;2022-08-21T04:01:09;16.00;99.90
5560;DHT22;2803;47.916;8.074;2022-08-21T04:03:37;16.10;99.90
5560;DHT22;2803;47.916;8.074;2022-08-21T04:06:04;16.30;99.90
5560;DHT22;2803;47.916;8.074;2022-08-21T04:08:31;16.30;99.90
5560;DHT22;2803;47.916;8.074;2022-08-21T04:10:58;16.40;99.90
5560;DHT22;2803;47.916;8.074;2022-08-21T04:13:26;16.40;99.90
5560;DHT22;2803;47.916;8.074;2022-08-21T04:15:54;16.30;99.90
5560;DHT22;2803;47.916;8.074;2022-08-21T04:18:21;16.30;99.90
5560;DHT22;2803;47.916;8.074;2022-08-21T04:20:50;16.30;99.90
5560;DHT22;2803;47.916;8.074;2022-08-21T04:23:17;16.30;99.90
5560;DHT22;2803;47.916;8.074;2022-08-21T04:25:44;16.30;99.90
5560;DHT22;2803;47.916;8.074;2022-08-21T04:28:10;16.00;99.90
5560;DHT22;2803;47.916;8.074;2022-08-21T04:30:38;15.90;99.90
5560;DHT22;2803;47.916;8.074;2022-08-21T04:33:05;15.70;99.90
5560;DHT22;2803;47.916;8.074;2022-08-21T04:35:32;16.00;99.90
5560;DHT22;2803;47.916;8.074;2022-08-21T04:37:59;15.90;99.90
5560;DHT22;2803;47.916;8.074;2022-08-21T04:40:26;15.60;99.90
5560;DHT22;2803;47.916;8.074;2022-08-21T04:42:56;15.10;99.90
5560;DHT22;2803;47.916;8.074;2022-08-21T04:45:26;15.20;99.90
5560;DHT22;2803;47.916;8.074;2022-08-21T04:47:56;15.60;99.90
5560;DHT22;2803;47.916;8.074;2022-08-21T04:50:26;15.90;99.90
5560;DHT22;2803;47.916;8.074;2022-08-21T04:52:54;15.90;99.90
5560;DHT22;2803;47.916;8.074;2022-08-21T04:55:21;16.00;99.90
5560;DHT22;2803;47.916;8.074;2022-08-21T04:57:49;16.10;99.90
5560;DHT22;2803;47.916;8.074;2022-08-21T05:00:19;15.70;99.90
5560;DHT22;2803;47.916;8.074;2022-08-21T05:02:47;15.80;99.90
5560;DHT22;2803;47.916;8.074;2022-08-21T05:05:16;15.60;99.90
5560;DHT22;2803;47.916;8.074;2022-08-21T05:07:44;15.60;99.90
5560;DHT22;2803;47.916;8.074;2022-08-21T05:10:11;15.50;99.90
5560;DHT22;2803;47.916;8.074;2022-08-21T05:12:39;15.40;99.90
5560;DHT22;2803;47.916;8.074;2022-08-21T05:15:07;15.30;99.90
5560;DHT22;2803;47.916;8.074;2022-08-21T05:17:34;14.40;99.90
5560;DHT22;2803;47.916;8.074;2022-08-21T05:20:00;14.20;99.90
5560;DHT22;2803;47.916;8.074;2022-08-21T05:22:29;14.20;99.90
5560;DHT22;2803;47.916;8.074;2022-08-21T05:24:57;14.70;99.90
5560;DHT22;2803;47.916;8.074;2022-08-21T05:27:23;15.10;99.90
5560;DHT22;2803;47.916;8.074;2022-08-21T05:29:50;15.00;99.90
5560;DHT22;2803;47.916;8.074;2022-08-21T05:32:16;15.00;99.90
5560;DHT22;2803;47.916;8.074;2022-08-21T05:34:43;15.10;99.90
5560;DHT22;2803;47.916;8.074;2022-08-21T05:37:10;14.70;99.90
5560;DHT22;2803;47.916;8.074;2022-08-21T05:39:38;15.20;99.90
5560;DHT22;2803;47.916;8.074;2022-08-21T05:42:05;15.40;99.90
5560;DHT22;2803;47.916;8.074;2022-08-21T05:44:32;15.60;99.90
5560;DHT22;2803;47.916;8.074;2022-08-21T05:47:04;15.40;99.90
5560;DHT22;2803;47.916;8.074;2022-08-21T05:49:31;15.60;99.90
5560;DHT22;2803;47.916;8.074;2022-08-21T05:51:57;15.90;99.90
5560;DHT22;2803;47.916;8.074;2022-08-21T05:54:25;15.90;99.90
5560;DHT22;2803;47.916;8.074;2022-08-21T05:56:53;15.90;99.90
5560;DHT22;2803;47.916;8.074;2022-08-21T05:59:20;16.10;99.90
5560;DHT22;2803;47.916;8.074;2022-08-21T06:01:46;16.10;99.90
5560;DHT22;2803;47.916;8.074;2022-08-21T06:04:13;16.20;99.90
5560;DHT22;2803;47.916;8.074;2022-08-21T06:06:40;16.20;99.90
5560;DHT22;2803;47.916;8.074;2022-08-21T06:09:07;15.80;99.90
5560;DHT22;2803;47.916;8.074;2022-08-21T06:11:34;16.10;99.90
5560;DHT22;2803;47.916;8.074;2022-08-21T06:14:02;16.30;99.90
5560;DHT22;2803;47.916;8.074;2022-08-21T06:16:29;16.40;99.90
5560;DHT22;2803;47.916;8.074;2022-08-21T06:18:56;16.50;99.90
5560;DHT22;2803;47.916;8.074;2022-08-21T06:21:22;16.60;99.90
5560;DHT22;2803;47.916;8.074;2022-08-21T06:23:49;16.80;99.90
5560;DHT22;2803;47.916;8.074;2022-08-21T06:26:16;16.80;99.90
5560;DHT22;2803;47.916;8.074;2022-08-21T06:28:43;17.00;99.90
5560;DHT22;2803;47.916;8.074;2022-08-21T06:31:14;17.10;99.90
5560;DHT22;2803;47.916;8.074;2022-08-21T06:33:41;17.30;99.90
5560;DHT22;2803;47.916;8.074;2022-08-21T06:36:08;17.30;99.90
5560;DHT22;2803;47.916;8.074;2022-08-21T06:38:35;17.40;99.90
5560;DHT22;2803;47.916;8.074;2022-08-21T06:41:02;17.60;99.90
5560;DHT22;2803;47.916;8.074;2022-08-21T06:43:29;17.50;99.90
5560;DHT22;2803;47.916;8.074;2022-08-21T06:45:56;17.60;99.90
5560;DHT22;2803;47.916;8.074;2022-08-21T06:48:24;17.80;99.90
5560;DHT22;2803;47.916;8.074;2022-08-21T06:50:50;17.70;99.90
5560;DHT22;2803;47.916;8.074;2022-08-21T06:53:19;17.40;99.90
5560;DHT22;2803;47.916;8.074;2022-08-21T06:55:46;17.80;99.90
5560;DHT22;2803;47.916;8.074;2022-08-21T06:58:14;18.20;99.90
5560;DHT22;2803;47.916;8.074;2022-08-21T07:00:43;18.20;99.90
5560;DHT22;2803;47.916;8.074;2022-08-21T07:03:16;18.40;99.90
5560;DHT22;2803;47.916;8.074;2022-08-21T07:05:44;18.60;99.90
5560;DHT22;2803;47.916;8.074;2022-08-21T07:08:11;19.00;99.90
5560;DHT22;2803;47.916;8.074;2022-08-21T07:10:37;19.30;99.90
5560;DHT22;2803;47.916;8.074;2022-08-21T07:13:04;19.50;99.90
5560;DHT22;2803;47.916;8.074;2022-08-21T07:15:31;19.80;99.90
5560;DHT22;2803;47.916;8.074;2022-08-21T07:17:58;19.90;99.90
5560;DHT22;2803;47.916;8.074;2022-08-21T07:20:25;20.10;99.90
5560;DHT22;2803;47.916;8.074;2022-08-21T07:22:53;20.20;99.90
5560;DHT22;2803;47.916;8.074;2022-08-21T07:25:20;20.30;99.90
5560;DHT22;2803;47.916;8.074;2022-08-21T07:27:47;20.60;99.90
5560;DHT22;2803;47.916;8.074;2022-08-21T07:30:14;20.70;99.90
5560;DHT22;2803;47.916;8.074;2022-08-21T07:32:40;20.80;99.90
5560;DHT22;2803;47.916;8.074;2022-08-21T07:35:07;20.90;99.90
5560;DHT22;2803;47.916;8.074;2022-08-21T07:37:34;21.10;99.90
5560;DHT22;2803;47.916;8.074;2022-08-21T07:40:03;21.30;99.90
5560;DHT22;2803;47.916;8.074;2022-08-21T07:42:30;21.50;99.90
5560;DHT22;2803;47.916;8.074;2022-08-21T07:44:56;21.40;99.90
5560;DHT22;2803;47.916;8.074;2022-08-21T07:47:23;21.80;99.90
5560;DHT22;2803;47.916;8.074;2022-08-21T07:49:49;22.00;99.90
5560;DHT22;2803;47.916;8.074;2022-08-21T07:52:16;22.30;99.90
5560;DHT22;2803;47.916;8.074;2022-08-21T07:54:43;22.50;99.90
5560;DHT22;2803;47.916;8.074;2022-08-21T07:57:11;22.80;99.90
5560;DHT22;2803;47.916;8.074;2022-08-21T07:59:38;22.70;99.90
5560;DHT22;2803;47.916;8.074;2022-08-21T08:02:04;22.60;99.90
5560;DHT22;2803;47.916;8.074;2022-08-21T08:04:31;22.70;99.90
5560;DHT22;2803;47.916;8.074;2022-08-21T08:06:57;22.90;99.90
5560;DHT22;2803;47.916;8.074;2022-08-21T08:09:24;22.80;99.90
5560;DHT22;2803;47.916;8.074;2022-08-21T08:11:51;22.80;99.90
5560;DHT22;2803;47.916;8.074;2022-08-21T08:14:19;22.60;99.90
5560;DHT22;2803;47.916;8.074;2022-08-21T08:16:45;22.60;99.90
5560;DHT22;2803;47.916;8.074;2022-08-21T08:19:12;22.40;99.90
5560;DHT22;2803;47.916;8.074;2022-08-21T08:21:39;22.40;99.90
5560;DHT22;2803;47.916;8.074;2022-08-21T08:24:05;22.20;99.90
5560;DHT22;2803;47.916;8.074;2022-08-21T08:26:32;22.20;99.90
5560;DHT22;2803;47.916;8.074;2022-08-21T08:28:59;22.10;99.90
5560;DHT22;2803;47.916;8.074;2022-08-21T08:31:27;22.10;99.90
5560;DHT22;2803;47.916;8.074;2022-08-21T08:33:54;22.40;99.90
5560;DHT22;2803;47.916;8.074;2022-08-21T08:36:31;22.50;99.90
5560;DHT22;2803;47.916;8.074;2022-08-21T08:38:59;22.70;99.90
5560;DHT22;2803;47.916;8.074;2022-08-21T08:41:26;22.90;99.90
5560;DHT22;2803;47.916;8.074;2022-08-21T08:43:55;23.20;99.90
5560;DHT22;2803;47.916;8.074;2022-08-21T08:46:33;23.20;99.90
5560;DHT22;2803;47.916;8.074;2022-08-21T10:36:17;26.20;97.70
5560;DHT22;2803;47.916;8.074;2022-08-21T10:38:58;25.80;97.30
5560;DHT22;2803;47.916;8.074;2022-08-21T10:41:37;25.90;97.60
5560;DHT22;2803;47.916;8.074;2022-08-21T10:44:17;26.20;97.20
5560;DHT22;2803;47.916;8.074;2022-08-21T10:46:51;26.30;97.90
5560;DHT22;2803;47.916;8.074;2022-08-21T10:49:25;26.00;98.10
5560;DHT22;2803;47.916;8.074;2022-08-21T10:52:07;26.20;98.20
5560;DHT22;2803;47.916;8.074;2022-08-21T10:54:42;25.60;98.20
5560;DHT22;2803;47.916;8.074;2022-08-21T10:57:16;25.70;99.00
5560;DHT22;2803;47.916;8.074;2022-08-21T10:59:48;26.00;97.70
5560;DHT22;2803;47.916;8.074;2022-08-21T11:02:20;26.10;98.00
5560;DHT22;2803;47.916;8.074;2022-08-21T11:04:54;26.30;97.10
5560;DHT22;2803;47.916;8.074;2022-08-21T11:07:30;26.30;97.30
5560;DHT22;2803;47.916;8.074;2022-08-21T11:10:00;26.60;98.10
5560;DHT22;2803;47.916;8.074;2022-08-21T11:12:38;26.60;96.60
5560;DHT22;2803;47.916;8.074;2022-08-21T11:15:19;26.80;95.80
5560;DHT22;2803;47.916;8.074;2022-08-21T11:17:50;27.10;95.40
5560;DHT22;2803;47.916;8.074;2022-08-21T11:20:27;27.50;94.80
5560;DHT22;2803;47.916;8.074;2022-08-21T11:23:03;27.60;94.40
5560;DHT22;2803;47.916;8.074;2022-08-21T11:25:35;27.60;94.20
5560;DHT22;2803;47.916;8.074;2022-08-21T11:28:08;27.50;94.80
5560;DHT22;2803;47.916;8.074;2022-08-21T11:30:44;27.20;95.80
5560;DHT22;2803;47.916;8.074;2022-08-21T11:33:25;26.90;95.80
5560;DHT22;2803;47.916;8.074;2022-08-21T11:35:58;27.20;96.00
5560;DHT22;2803;47.916;8.074;2022-08-21T11:38:34;27.30;95.20
5560;DHT22;2803;47.916;8.074;2022-08-21T11:41:13;27.30;95.00
5560;DHT22;2803;47.916;8.074;2022-08-21T11:43:43;27.70;94.60
5560;DHT22;2803;47.916;8.074;2022-08-21T11:46:18;28.70;94.20
5560;DHT22;2803;47.916;8.074;2022-08-21T11:48:54;28.70;92.40
5560;DHT22;2803;47.916;8.074;2022-08-21T11:51:29;28.30;92.70
5560;DHT22;2803;47.916;8.074;2022-08-21T11:54:04;28.00;93.20
5560;DHT22;2803;47.916;8.074;2022-08-21T11:56:35;28.20;93.30
5560;DHT22;2803;47.916;8.074;2022-08-21T11:59:08;28.80;92.50
5560;DHT22;2803;47.916;8.074;2022-08-21T12:01:40;29.70;91.20
5560;DHT22;2803;47.916;8.074;2022-08-21T12:04:17;30.00;90.90
5560;DHT22;2803;47.916;8.074;2022-08-21T12:06:44;30.30;89.00
5560;DHT22;2803;47.916;8.074;2022-08-21T12:09:31;30.10;88.50
5560;DHT22;2803;47.916;8.074;2022-08-21T12:12:03;30.40;87.20
5560;DHT22;2803;47.916;8.074;2022-08-21T12:14:37;30.50;88.10
5560;DHT22;2803;47.916;8.074;2022-08-21T12:17:06;31.10;86.80
5560;DHT22;2803;47.916;8.074;2022-08-21T12:19:33;31.00;85.20
5560;DHT22;2803;47.916;8.074;2022-08-21T12:22:09;31.30;85.40
5560;DHT22;2803;47.916;8.074;2022-08-21T12:24:39;31.90;83.20
5560;DHT22;2803;47.916;8.074;2022-08-21T12:27:22;32.30;82.50
5560;DHT22;2803;47.916;8.074;2022-08-21T12:29:54;31.60;82.50
5560;DHT22;2803;47.916;8.074;2022-08-21T12:32:26;31.20;83.90
5560;DHT22;2803;47.916;8.074;2022-08-21T12:34:57;31.30;83.60
5560;DHT22;2803;47.916;8.074;2022-08-21T12:37:34;31.20;83.90
5560;DHT22;2803;47.916;8.074;2022-08-21T12:40:11;31.50;81.70
5560;DHT22;2803;47.916;8.074;2022-08-21T12:42:42;31.40;80.40
5560;DHT22;2803;47.916;8.074;2022-08-21T12:45:18;31.50;81.30
5560;DHT22;2803;47.916;8.074;2022-08-21T12:47:48;31.40;80.00
5560;DHT22;2803;47.916;8.074;2022-08-21T12:50:20;31.60;80.70
5560;DHT22;2803;47.916;8.074;2022-08-21T12:52:54;32.00;81.60
5560;DHT22;2803;47.916;8.074;2022-08-21T12:55:29;32.70;79.70
5560;DHT22;2803;47.916;8.074;2022-08-21T12:57:57;32.70;77.80
5560;DHT22;2803;47.916;8.074;2022-08-21T13:00:25;32.30;78.90
5560;DHT22;2803;47.916;8.074;2022-08-21T13:02:54;32.10;78.80
5560;DHT22;2803;47.916;8.074;2022-08-21T13:05:28;31.90;79.30
5560;DHT22;2803;47.916;8.074;2022-08-21T13:07:55;31.80;76.20
5560;DHT22;2803;47.916;8.074;2022-08-21T13:10:24;32.10;77.70
5560;DHT22;2803;47.916;8.074;2022-08-21T13:12:56;31.80;76.70
5560;DHT22;2803;47.916;8.074;2022-08-21T13:15:26;31.80;77.40
5560;DHT22;2803;47.916;8.074;2022-08-21T13:17:54;31.80;75.90
5560;DHT22;2803;47.916;8.074;2022-08-21T13:20:29;32.20;76.30
5560;DHT22;2803;47.916;8.074;2022-08-21T13:22:56;32.10;75.00
5560;DHT22;2803;47.916;8.074;2022-08-21T13:25:26;31.70;76.60
5560;DHT22;2803;47.916;8.074;2022-08-21T13:28:00;31.90;76.90
5560;DHT22;2803;47.916;8.074;2022-08-21T13:30:27;32.40;76.00
5560;DHT22;2803;47.916;8.074;2022-08-21T13:32:58;32.80;75.90
5560;DHT22;2803;47.916;8.074;2022-08-21T13:35:27;32.60;74.80
5560;DHT22;2803;47.916;8.074;2022-08-21T13:37:55;32.80;74.00
5560;DHT22;2803;47.916;8.074;2022-08-21T13:40:25;33.00;71.30
5560;DHT22;2803;47.916;8.074;2022-08-21T13:42:53;33.00;72.70
5560;DHT22;2803;47.916;8.074;2022-08-21T13:45:26;32.70;72.30
5560;DHT22;2803;47.916;8.074;2022-08-21T13:47:53;32.80;71.90
5560;DHT22;2803;47.916;8.074;2022-08-21T13:50:23;33.10;72.00
5560;DHT22;2803;47.916;8.074;2022-08-21T13:52:57;33.20;71.50
5560;DHT22;2803;47.916;8.074;2022-08-21T13:55:24;32.90;71.20
5560;DHT22;2803;47.916;8.074;2022-08-21T13:57:59;32.70;70.70
5560;DHT22;2803;47.916;8.074;2022-08-21T14:00:29;32.60;71.70
5560;DHT22;2803;47.916;8.074;2022-08-21T14:03:04;31.50;72.90
5560;DHT22;2803;47.916;8.074;2022-08-21T14:05:33;31.80;72.70
5560;DHT22;2803;47.916;8.074;2022-08-21T14:08:06;32.00;76.20
5560;DHT22;2803;47.916;8.074;2022-08-21T14:10:36;32.90;70.50
5560;DHT22;2803;47.916;8.074;2022-08-21T14:13:07;32.90;71.00
5560;DHT22;2803;47.916;8.074;2022-08-21T14:15:35;32.70;69.20
5560;DHT22;2803;47.916;8.074;2022-08-21T14:18:08;32.50;72.30
5560;DHT22;2803;47.916;8.074;2022-08-21T14:20:36;32.30;70.10
5560;DHT22;2803;47.916;8.074;2022-08-21T14:23:03;32.50;71.60
5560;DHT22;2803;47.916;8.074;2022-08-21T14:25:37;32.80;70.60
5560;DHT22;2803;47.916;8.074;2022-08-21T14:28:20;33.20;71.40
5560;DHT22;2803;47.916;8.074;2022-08-21T14:30:52;33.00;69.60
5560;DHT22;2803;47.916;8.074;2022-08-21T14:33:23;33.40;70.00
5560;DHT22;2803;47.916;8.074;2022-08-21T14:35:51;33.50;68.10
5560;DHT22;2803;47.916;8.074;2022-08-21T14:38:19;33.50;69.90
5560;DHT22;2803;47.916;8.074;2022-08-21T14:40:49;33.00;69.80
5560;DHT22;2803;47.916;8.074;2022-08-21T14:43:16;33.10;70.20
5560;DHT22;2803;47.916;8.074;2022-08-21T14:45:44;33.50;69.10
5560;DHT22;2803;47.916;8.074;2022-08-21T14:48:13;33.10;68.50
5560;DHT22;2803;47.916;8.074;2022-08-21T14:50:39;32.10;68.10
5560;DHT22;2803;47.916;8.074;2022-08-21T14:53:06;30.80;69.40
5560;DHT22;2803;47.916;8.074;2022-08-21T14:55:33;30.80;72.50
5560;DHT22;2803;47.916;8.074;2022-08-21T14:58:21;30.30;73.60
5560;DHT22;2803;47.916;8.074;2022-08-21T15:00:50;29.90;73.10
5560;DHT22;2803;47.916;8.074;2022-08-21T15:03:19;29.90;74.00
5560;DHT22;2803;47.916;8.074;2022-08-21T15:05:47;29.50;77.00
5560;DHT22;2803;47.916;8.074;2022-08-21T15:08:13;28.80;76.20
5560;DHT22;2803;47.916;8.074;2022-08-21T15:10:40;28.80;79.20
5560;DHT22;2803;47.916;8.074;2022-08-21T15:13:07;29.10;78.70
5560;DHT22;2803;47.916;8.074;2022-08-21T15:15:39;29.60;77.00
5560;DHT22;2803;47.916;8.074;2022-08-21T15:18:06;30.00;75.60
5560;DHT22;2803;47.916;8.074;2022-08-21T15:20:34;30.60;75.70
5560;DHT22;2803;47.916;8.074;2022-08-21T15:23:01;31.20;74.10
5560;DHT22;2803;47.916;8.074;2022-08-21T15:25:27;31.30;73.60
5560;DHT22;2803;47.916;8.074;2022-08-21T15:27:54;31.80;73.70
5560;DHT22;2803;47.916;8.074;2022-08-21T15:30:21;32.20;72.10
5560;DHT22;2803;47.916;8.074;2022-08-21T15:32:48;32.80;70.20
5560;DHT22;2803;47.916;8.074;2022-08-21T15:35:15;33.50;69.00
5560;DHT22;2803;47.916;8.074;2022-08-21T15:37:43;33.80;68.20
5560;DHT22;2803;47.916;8.074;2022-08-21T15:40:10;33.80;68.40
5560;DHT22;2803;47.916;8.074;2022-08-21T15:42:40;33.60;68.10
5560;DHT22;2803;47.916;8.074;2022-08-21T15:45:08;32.40;69.50
5560;DHT22;2803;47.916;8.074;2022-08-21T15:47:36;31.70;70.20
5560;DHT22;2803;47.916;8.074;2022-08-21T15:50:07;31.20;73.20
5560;DHT22;2803;47.916;8.074;2022-08-21T15:52:34;31.00;73.20
5560;DHT22;2803;47.916;8.074;2022-08-21T15:55:03;30.70;74.70
5560;DHT22;2803;47.916;8.074;2022-08-21T15:57:29;30.10;76.10
5560;DHT22;2803;47.916;8.074;2022-08-21T15:59:59;30.00;75.70
5560;DHT22;2803;47.916;8.074;2022-08-21T16:02:33;29.70;76.10
5560;DHT22;2803;47.916;8.074;2022-08-21T16:04:59;29.60;78.10
5560;DHT22;2803;47.916;8.074;2022-08-21T16:07:26;29.40;78.80
5560;DHT22;2803;47.916;8.074;2022-08-21T16:09:53;29.10;79.90
5560;DHT22;2803;47.916;8.074;2022-08-21T16:12:24;28.60;77.70
5560;DHT22;2803;47.916;8.074;2022-08-21T16:14:51;28.40;82.00
5560;DHT22;2803;47.916;8.074;2022-08-21T16:17:19;28.10;80.30
5560;DHT22;2803;47.916;8.074;2022-08-21T16:19:47;28.00;82.10
5560;DHT22;2803;47.916;8.074;2022-08-21T16:22:13;28.00;81.80
5560;DHT22;2803;47.916;8.074;2022-08-21T16:24:40;27.90;83.80
5560;DHT22;2803;47.916;8.074;2022-08-21T16:27:06;27.50;83.70
5560;DHT22;2803;47.916;8.074;2022-08-21T16:29:35;27.60;84.70
5560;DHT22;2803;47.916;8.074;2022-08-21T16:32:02;27.50;87.00
5560;DHT22;2803;47.916;8.074;2022-08-21T16:34:29;27.60;86.80
5560;DHT22;2803;47.916;8.074;2022-08-21T16:36:56;27.70;86.50
5560;DHT22;2803;47.916;8.074;2022-08-21T16:39:23;27.70;88.50
5560;DHT22;2803;47.916;8.074;2022-08-21T16:41:49;27.60;88.50
5560;DHT22;2803;47.916;8.074;2022-08-21T16:44:16;27.50;89.20
5560;DHT22;2803;47.916;8.074;2022-08-21T16:46:45;27.30;88.30
5560;DHT22;2803;47.916;8.074;2022-08-21T16:49:12;27.10;86.70
5560;DHT22;2803;47.916;8.074;2022-08-21T16:51:38;27.00;86.20
5560;DHT22;2803;47.916;8.074;2022-08-21T16:54:05;26.70;85.80
5560;DHT22;2803;47.916;8.074;2022-08-21T16:56:32;26.70;87.90
5560;DHT22;2803;47.916;8.074;2022-08-21T16:59:00;26.80;86.50
5560;DHT22;2803;47.916;8.074;2022-08-21T17:01:29;26.40;88.10
5560;DHT22;2803;47.916;8.074;2022-08-21T17:03:58;26.80;87.50
5560;DHT22;2803;47.916;8.074;2022-08-21T17:06:25;26.90;88.10
5560;DHT22;2803;47.916;8.074;2022-08-21T17:08:52;27.10;88.20
5560;DHT22;2803;47.916;8.074;2022-08-21T17:11:22;27.10;89.20
5560;DHT22;2803;47.916;8.074;2022-08-21T17:13:49;26.80;89.40
5560;DHT22;2803;47.916;8.074;2022-08-21T17:16:16;26.80;90.40
5560;DHT22;2803;47.916;8.074;2022-08-21T17:18:42;26.90;91.00
5560;DHT22;2803;47.916;8.074;2022-08-21T17:21:10;26.90;92.10
5560;DHT22;2803;47.916;8.074;2022-08-21T17:23:37;26.80;92.40
5560;DHT22;2803;47.916;8.074;2022-08-21T17:26:04;26.70;91.70
5560;DHT22;2803;47.916;8.074;2022-08-21T17:28:34;26.70;92.90
5560;DHT22;2803;47.916;8.074;2022-08-21T17:31:02;26.70;94.50
5560;DHT22;2803;47.916;8.074;2022-08-21T17:33:31;26.50;95.40
5560;DHT22;2803;47.916;8.074;2022-08-21T17:35:59;26.10;93.80
5560;DHT22;2803;47.916;8.074;2022-08-21T17:38:27;26.10;94.40
5560;DHT22;2803;47.916;8.074;2022-08-21T17:40:54;26.10;95.10
5560;DHT22;2803;47.916;8.074;2022-08-21T17:43:22;26.20;96.00
5560;DHT22;2803;47.916;8.074;2022-08-21T17:45:49;26.10;96.70
5560;DHT22;2803;47.916;8.074;2022-08-21T17:48:16;26.00;97.60
5560;DHT22;2803;47.916;8.074;2022-08-21T17:50:42;25.90;97.90
5560;DHT22;2803;47.916;8.074;2022-08-21T17:53:09;25.80;98.60
5560;DHT22;2803;47.916;8.074;2022-08-21T17:55:37;25.70;98.40
5560;DHT22;2803;47.916;8.074;2022-08-21T17:58:07;25.60;99.00